sensor_id;sensor_type;location;lat;lon;timestamp;pressure;altitude;pressure_sealevel;temperature;humidity
21640;BME280;10981;45.462;10.974;2022-09-09T00:00:15;100246.25;;;19.90;100.00
21640;BME280;10981;45.462;10.974;2022-09-09T00:05:45;100245.94;;;20.07;100.00
21640;BME280;10981;45.462;10.974;2022-09-09T00:08:20;100241.47;;;20.07;100.00
21640;BME280;10981;45.462;10.974;2022-09-09T00:10:57;100239.81;;;20.06;100.00
21640;BME280;10981;45.462;10.974;2022-09-09T00:13:34;100236.34;;;20.06;100.00
21640;BME280;10981;45.462;10.974;2022-09-09T00:16:21;100248.19;;;20.03;100.00
21640;BME280;10981;45.462;10.974;2022-09-09T00:19:15;100251.63;;;19.97;100.00
21640;BME280;10981;45.462;10.974;2022-09-09T00:22:19;100244.25;;;19.99;100.00
21640;BME280;10981;45.462;10.974;2022-09-09T00:24:55;100250.00;;;20.03;100.00
21640;BME280;10981;45.462;10.974;2022-09-09T00:27:34;100241.44;;;20.01;100.00
21640;BME280;10981;45.462;10.974;2022-09-09T00:30:19;100245.53;;;20.03;100.00
21640;BME280;10981;45.462;10.974;2022-09-09T00:32:54;100245.31;;;19.98;100.00
21640;BME280;10981;45.462;10.974;2022-09-09T00:35:36;100246.88;;;19.92;100.00
21640;BME280;10981;45.462;10.974;2022-09-09T00:38:14;100253.41;;;19.90;100.00
21640;BME280;10981;45.462;10.974;2022-09-09T00:41:05;100249.09;;;19.89;100.00
21640;BME280;10981;45.462;10.974;2022-09-09T00:43:39;100252.97;;;19.86;100.00
21640;BME280;10981;45.462;10.974;2022-09-09T00:46:32;100255.38;;;19.81;100.00
21640;BME280;10981;45.462;10.974;2022-09-09T00:52:14;100251.47;;;19.77;100.00
21640;BME280;10981;45.462;10.974;2022-09-09T00:57:36;100258.00;;;19.74;100.00
21640;BME280;10981;45.462;10.974;2022-09-09T01:00:29;100253.31;;;19.76;100.00
21640;BME280;10981;45.462;10.974;2022-09-09T01:10:57;100249.78;;;19.69;100.00
21640;BME280;10981;45.462;10.974;2022-09-09T01:13:30;100245.50;;;19.68;100.00
21640;BME280;10981;45.462;10.974;2022-09-09T01:16:04;100239.56;;;19.66;100.00
21640;BME280;10981;45.462;10.974;2022-09-09T01:18:43;100236.72;;;19.68;100.00
21640;BME280;10981;45.462;10.974;2022-09-09T01:21:39;100229.78;;;19.67;100.00
21640;BME280;10981;45.462;10.974;2022-09-09T01:24:27;100236.72;;;19.68;100.00
21640;BME280;10981;45.462;10.974;2022-09-09T01:27:06;100230.38;;;19.69;100.00
21640;BME280;10981;45.462;10.974;2022-09-09T01:29:36;100233.44;;;19.66;100.00
21640;BME280;10981;45.462;10.974;2022-09-09T01:32:43;100224.44;;;19.60;100.00
21640;BME280;10981;45.462;10.974;2022-09-09T01:37:53;100224.16;;;19.55;100.00
21640;BME280;10981;45.462;10.974;2022-09-09T01:40:22;100235.13;;;19.45;100.00
21640;BME280;10981;45.462;10.974;2022-09-09T01:42:51;100224.63;;;19.30;100.00
21640;BME280;10981;45.462;10.974;2022-09-09T01:45:20;100228.69;;;19.26;100.00
21640;BME280;10981;45.462;10.974;2022-09-09T01:47:53;100223.22;;;19.34;100.00
21640;BME280;10981;45.462;10.974;2022-09-09T01:50:53;100219.59;;;19.42;100.00
21640;BME280;10981;45.462;10.974;2022-09-09T01:53:23;100205.75;;;19.47;100.00
21640;BME280;10981;45.462;10.974;2022-09-09T01:56:14;100213.16;;;19.51;100.00
21640;BME280;10981;45.462;10.974;2022-09-09T02:07:50;100204.88;;;19.68;100.00
21640;BME280;10981;45.462;10.974;2022-09-09T02:10:55;100204.88;;;19.68;100.00
21640;BME280;10981;45.462;10.974;2022-09-09T02:13:37;100199.97;;;19.71;100.00
21640;BME280;10981;45.462;10.974;2022-09-09T02:16:17;100208.91;;;19.64;100.00
21640;BME280;10981;45.462;10.974;2022-09-09T02:18:49;100207.75;;;19.38;100.00
21640;BME280;10981;45.462;10.974;2022-09-09T02:21:23;100210.97;;;19.33;100.00
21640;BME280;10981;45.462;10.974;2022-09-09T02:23:53;100203.38;;;19.23;100.00
21640;BME280;10981;45.462;10.974;2022-09-09T02:26:24;100203.50;;;19.15;100.00
21640;BME280;10981;45.462;10.974;2022-09-09T02:29:02;100194.16;;;19.19;100.00
21640;BME280;10981;45.462;10.974;2022-09-09T02:31:34;100195.34;;;19.17;100.00
21640;BME280;10981;45.462;10.974;2022-09-09T02:34:09;100203.28;;;19.17;100.00
21640;BME280;10981;45.462;10.974;2022-09-09T02:36:41;100211.69;;;19.20;100.00
21640;BME280;10981;45.462;10.974;2022-09-09T02:39:11;100198.34;;;19.07;100.00
21640;BME280;10981;45.462;10.974;2022-09-09T02:41:42;100210.44;;;19.16;100.00
21640;BME280;10981;45.462;10.974;2022-09-09T02:44:13;100213.56;;;19.26;100.00
21640;BME280;10981;45.462;10.974;2022-09-09T02:52:07;100218.06;;;19.26;100.00
21640;BME280;10981;45.462;10.974;2022-09-09T02:54:40;100215.69;;;18.88;100.00
21640;BME280;10981;45.462;10.974;2022-09-09T02:59:48;100219.88;;;18.82;100.00
21640;BME280;10981;45.462;10.974;2022-09-09T03:02:18;100216.63;;;18.80;100.00
21640;BME280;10981;45.462;10.974;2022-09-09T03:04:51;100215.97;;;18.78;100.00
21640;BME280;10981;45.462;10.974;2022-09-09T03:07:21;100209.50;;;18.81;100.00
21640;BME280;10981;45.462;10.974;2022-09-09T03:09:51;100212.38;;;18.86;100.00
21640;BME280;10981;45.462;10.974;2022-09-09T03:12:25;100216.53;;;18.73;100.00
21640;BME280;10981;45.462;10.974;2022-09-09T03:14:53;100215.63;;;18.81;100.00
21640;BME280;10981;45.462;10.974;2022-09-09T03:17:21;100205.06;;;18.88;100.00
21640;BME280;10981;45.462;10.974;2022-09-09T03:19:54;100201.06;;;18.92;100.00
21640;BME280;10981;45.462;10.974;2022-09-09T03:22:24;100195.56;;;18.93;100.00
21640;BME280;10981;45.462;10.974;2022-09-09T03:24:54;100191.09;;;18.94;100.00
21640;BME280;10981;45.462;10.974;2022-09-09T03:27:23;100193.16;;;18.99;100.00
21640;BME280;10981;45.462;10.974;2022-09-09T03:29:52;100185.28;;;19.05;100.00
21640;BME280;10981;45.462;10.974;2022-09-09T03:32:24;100187.53;;;19.08;100.00
21640;BME280;10981;45.462;10.974;2022-09-09T03:34:55;100186.53;;;19.09;100.00
21640;BME280;10981;45.462;10.974;2022-09-09T03:37:24;100179.19;;;19.11;100.00
21640;BME280;10981;45.462;10.974;2022-09-09T03:39:53;100188.25;;;18.95;100.00
21640;BME280;10981;45.462;10.974;2022-09-09T03:42:24;100184.13;;;18.71;100.00
21640;BME280;10981;45.462;10.974;2022-09-09T03:44:55;100181.03;;;18.68;100.00
21640;BME280;10981;45.462;10.974;2022-09-09T03:47:26;100181.78;;;18.61;100.00
21640;BME280;10981;45.462;10.974;2022-09-09T03:50:00;100182.34;;;18.57;100.00
21640;BME280;10981;45.462;10.974;2022-09-09T03:52:29;100174.78;;;18.54;100.00
21640;BME280;10981;45.462;10.974;2022-09-09T03:54:58;100171.94;;;18.55;100.00
21640;BME280;10981;45.462;10.974;2022-09-09T03:57:26;100181.34;;;18.58;100.00
21640;BME280;10981;45.462;10.974;2022-09-09T03:59:55;100181.34;;;18.58;100.00
21640;BME280;10981;45.462;10.974;2022-09-09T04:02:23;100181.34;;;18.58;100.00
21640;BME280;10981;45.462;10.974;2022-09-09T04:04:52;100176.88;;;18.58;100.00
21640;BME280;10981;45.462;10.974;2022-09-09T04:07:20;100172.78;;;18.56;100.00
21640;BME280;10981;45.462;10.974;2022-09-09T04:09:49;100170.94;;;18.56;100.00
21640;BME280;10981;45.462;10.974;2022-09-09T04:12:17;100173.78;;;18.55;100.00
21640;BME280;10981;45.462;10.974;2022-09-09T04:14:46;100173.97;;;18.53;100.00
21640;BME280;10981;45.462;10.974;2022-09-09T04:17:14;100171.34;;;18.53;100.00
21640;BME280;10981;45.462;10.974;2022-09-09T04:19:42;100169.03;;;18.50;100.00
21640;BME280;10981;45.462;10.974;2022-09-09T04:22:11;100163.13;;;18.48;100.00
21640;BME280;10981;45.462;10.974;2022-09-09T04:24:39;100163.94;;;18.49;100.00
21640;BME280;10981;45.462;10.974;2022-09-09T04:27:08;100167.84;;;18.53;100.00
21640;BME280;10981;45.462;10.974;2022-09-09T04:29:37;100164.63;;;18.57;100.00
21640;BME280;10981;45.462;10.974;2022-09-09T04:32:06;100178.59;;;18.66;100.00
21640;BME280;10981;45.462;10.974;2022-09-09T04:34:34;100179.19;;;18.68;100.00
21640;BME280;10981;45.462;10.974;2022-09-09T04:37:02;100181.28;;;18.73;100.00
21640;BME280;10981;45.462;10.974;2022-09-09T04:39:31;100177.50;;;18.60;100.00
21640;BME280;10981;45.462;10.974;2022-09-09T04:42:00;100171.44;;;18.67;100.00
21640;BME280;10981;45.462;10.974;2022-09-09T04:44:30;100173.72;;;18.48;100.00
21640;BME280;10981;45.462;10.974;2022-09-09T04:46:59;100169.78;;;18.44;100.00
21640;BME280;10981;45.462;10.974;2022-09-09T04:49:28;100166.41;;;18.50;100.00
21640;BME280;10981;45.462;10.974;2022-09-09T04:51:56;100169.94;;;18.57;100.00
21640;BME280;10981;45.462;10.974;2022-09-09T04:54:24;100155.09;;;18.63;100.00
21640;BME280;10981;45.462;10.974;2022-09-09T04:56:53;100154.16;;;18.71;100.00
21640;BME280;10981;45.462;10.974;2022-09-09T04:59:22;100158.44;;;18.72;100.00
21640;BME280;10981;45.462;10.974;2022-09-09T05:01:57;100154.69;;;18.81;100.00
21640;BME280;10981;45.462;10.974;2022-09-09T05:04:25;100163.69;;;18.87;100.00
21640;BME280;10981;45.462;10.974;2022-09-09T05:06:53;100161.50;;;18.90;100.00
21640;BME280;10981;45.462;10.974;2022-09-09T05:09:21;100160.28;;;18.93;100.00
21640;BME280;10981;45.462;10.974;2022-09-09T05:11:50;100173.16;;;18.96;100.00
21640;BME280;10981;45.462;10.974;2022-09-09T05:14:27;100176.81;;;18.95;100.00
21640;BME280;10981;45.462;10.974;2022-09-09T05:16:55;100171.34;;;18.97;100.00
21640;BME280;10981;45.462;10.974;2022-09-09T05:19:24;100177.44;;;18.97;100.00
21640;BME280;10981;45.462;10.974;2022-09-09T05:21:54;100179.03;;;18.91;100.00
21640;BME280;10981;45.462;10.974;2022-09-09T05:24:28;100184.97;;;18.93;100.00
21640;BME280;10981;45.462;10.974;2022-09-09T05:26:58;100185.84;;;19.01;100.00
21640;BME280;10981;45.462;10.974;2022-09-09T05:29:29;100192.19;;;19.06;100.00
21640;BME280;10981;45.462;10.974;2022-09-09T05:32:00;100188.75;;;19.06;100.00
21640;BME280;10981;45.462;10.974;2022-09-09T05:34:29;100197.19;;;19.16;100.00
21640;BME280;10981;45.462;10.974;2022-09-09T05:36:57;100193.38;;;19.25;100.00
21640;BME280;10981;45.462;10.974;2022-09-09T05:39:26;100199.59;;;19.39;100.00
21640;BME280;10981;45.462;10.974;2022-09-09T05:41:54;100205.56;;;19.48;100.00
21640;BME280;10981;45.462;10.974;2022-09-09T05:44:23;100209.72;;;19.57;100.00
21640;BME280;10981;45.462;10.974;2022-09-09T05:46:55;100202.22;;;19.68;100.00
21640;BME280;10981;45.462;10.974;2022-09-09T05:49:24;100204.13;;;19.81;100.00
21640;BME280;10981;45.462;10.974;2022-09-09T05:51:52;100203.50;;;19.79;100.00
21640;BME280;10981;45.462;10.974;2022-09-09T05:54:21;100196.16;;;19.81;100.00
21640;BME280;10981;45.462;10.974;2022-09-09T05:56:52;100199.53;;;19.96;100.00
21640;BME280;10981;45.462;10.974;2022-09-09T05:59:21;100199.78;;;20.08;100.00
21640;BME280;10981;45.462;10.974;2022-09-09T06:01:53;100206.97;;;20.21;100.00
21640;BME280;10981;45.462;10.974;2022-09-09T06:04:27;100205.41;;;20.40;100.00
21640;BME280;10981;45.462;10.974;2022-09-09T06:06:55;100210.56;;;20.55;100.00
21640;BME280;10981;45.462;10.974;2022-09-09T06:09:24;100204.00;;;20.57;100.00
21640;BME280;10981;45.462;10.974;2022-09-09T06:11:52;100208.72;;;20.62;100.00
21640;BME280;10981;45.462;10.974;2022-09-09T06:14:22;100215.53;;;20.71;100.00
21640;BME280;10981;45.462;10.974;2022-09-09T06:16:52;100209.53;;;20.69;100.00
21640;BME280;10981;45.462;10.974;2022-09-09T06:19:26;100214.09;;;20.76;100.00
21640;BME280;10981;45.462;10.974;2022-09-09T06:21:57;100205.31;;;20.88;100.00
21640;BME280;10981;45.462;10.974;2022-09-09T06:24:31;100212.88;;;21.05;100.00
21640;BME280;10981;45.462;10.974;2022-09-09T06:27:02;100200.41;;;21.26;100.00
21640;BME280;10981;45.462;10.974;2022-09-09T06:29:34;100202.63;;;21.62;100.00
21640;BME280;10981;45.462;10.974;2022-09-09T06:32:03;100203.91;;;22.05;100.00
21640;BME280;10981;45.462;10.974;2022-09-09T06:34:34;100198.63;;;22.44;100.00
21640;BME280;10981;45.462;10.974;2022-09-09T06:37:03;100201.41;;;22.88;100.00
21640;BME280;10981;45.462;10.974;2022-09-09T06:39:38;100196.91;;;23.39;100.00
21640;BME280;10981;45.462;10.974;2022-09-09T06:42:06;100195.53;;;23.92;100.00
21640;BME280;10981;45.462;10.974;2022-09-09T06:44:55;100187.81;;;24.32;100.00
21640;BME280;10981;45.462;10.974;2022-09-09T06:47:43;100193.56;;;24.48;100.00
21640;BME280;10981;45.462;10.974;2022-09-09T06:50:11;100192.38;;;24.74;100.00
21640;BME280;10981;45.462;10.974;2022-09-09T06:52:40;100197.06;;;24.91;100.00
21640;BME280;10981;45.462;10.974;2022-09-09T06:55:10;100198.56;;;24.99;100.00
21640;BME280;10981;45.462;10.974;2022-09-09T06:57:38;100196.94;;;25.21;100.00
21640;BME280;10981;45.462;10.974;2022-09-09T07:00:13;100197.09;;;25.38;100.00
21640;BME280;10981;45.462;10.974;2022-09-09T07:02:42;100200.00;;;25.37;100.00
21640;BME280;10981;45.462;10.974;2022-09-09T07:05:12;100192.16;;;25.35;100.00
21640;BME280;10981;45.462;10.974;2022-09-09T07:07:44;100186.81;;;25.59;100.00
21640;BME280;10981;45.462;10.974;2022-09-09T07:10:18;100194.81;;;25.83;100.00
21640;BME280;10981;45.462;10.974;2022-09-09T07:12:51;100193.94;;;26.06;100.00
21640;BME280;10981;45.462;10.974;2022-09-09T07:15:22;100188.78;;;26.16;100.00
21640;BME280;10981;45.462;10.974;2022-09-09T07:17:51;100184.03;;;26.35;100.00
21640;BME280;10981;45.462;10.974;2022-09-09T07:20:21;100181.44;;;26.57;100.00
21640;BME280;10981;45.462;10.974;2022-09-09T07:22:50;100178.41;;;26.83;100.00
21640;BME280;10981;45.462;10.974;2022-09-09T07:25:18;100174.75;;;27.06;100.00
21640;BME280;10981;45.462;10.974;2022-09-09T07:27:47;100177.53;;;27.33;100.00
21640;BME280;10981;45.462;10.974;2022-09-09T07:30:15;100164.25;;;27.44;100.00
21640;BME280;10981;45.462;10.974;2022-09-09T07:32:53;100166.06;;;27.60;100.00
21640;BME280;10981;45.462;10.974;2022-09-09T07:35:21;100169.78;;;27.76;100.00
21640;BME280;10981;45.462;10.974;2022-09-09T07:37:49;100163.16;;;27.84;100.00
21640;BME280;10981;45.462;10.974;2022-09-09T07:40:20;100168.16;;;28.02;100.00
21640;BME280;10981;45.462;10.974;2022-09-09T07:42:50;100165.88;;;27.67;100.00
21640;BME280;10981;45.462;10.974;2022-09-09T07:45:18;100168.47;;;27.79;100.00
21640;BME280;10981;45.462;10.974;2022-09-09T07:47:46;100166.25;;;28.52;99.67
21640;BME280;10981;45.462;10.974;2022-09-09T07:50:17;100173.66;;;28.67;93.14
21640;BME280;10981;45.462;10.974;2022-09-09T07:52:45;100166.50;;;28.51;96.22
21640;BME280;10981;45.462;10.974;2022-09-09T07:55:14;100166.16;;;28.69;91.50
21640;BME280;10981;45.462;10.974;2022-09-09T07:57:43;100165.31;;;29.07;92.70
21640;BME280;10981;45.462;10.974;2022-09-09T08:00:12;100165.44;;;29.27;88.56
21640;BME280;10981;45.462;10.974;2022-09-09T08:02:46;100164.72;;;29.37;87.55
21640;BME280;10981;45.462;10.974;2022-09-09T08:05:15;100172.63;;;29.54;88.57
21640;BME280;10981;45.462;10.974;2022-09-09T08:07:45;100170.44;;;29.08;88.37
21640;BME280;10981;45.462;10.974;2022-09-09T08:10:13;100174.81;;;29.19;87.30
21640;BME280;10981;45.462;10.974;2022-09-09T08:12:45;100182.41;;;28.85;88.89
21640;BME280;10981;45.462;10.974;2022-09-09T08:15:33;100181.69;;;28.95;90.17
21640;BME280;10981;45.462;10.974;2022-09-09T08:18:04;100189.09;;;29.15;90.48
21640;BME280;10981;45.462;10.974;2022-09-09T08:20:32;100184.66;;;29.41;90.54
21640;BME280;10981;45.462;10.974;2022-09-09T08:23:00;100192.03;;;29.61;87.38
21640;BME280;10981;45.462;10.974;2022-09-09T08:25:29;100192.25;;;29.44;88.47
21640;BME280;10981;45.462;10.974;2022-09-09T08:27:58;100192.88;;;29.67;87.91
21640;BME280;10981;45.462;10.974;2022-09-09T08:30:27;100185.50;;;30.15;83.20
21640;BME280;10981;45.462;10.974;2022-09-09T08:32:55;100190.44;;;30.60;82.96
21640;BME280;10981;45.462;10.974;2022-09-09T08:35:23;100179.88;;;30.53;80.29
21640;BME280;10981;45.462;10.974;2022-09-09T08:37:54;100190.38;;;30.44;79.87
21640;BME280;10981;45.462;10.974;2022-09-09T08:40:28;100183.41;;;30.69;80.05
21640;BME280;10981;45.462;10.974;2022-09-09T08:42:59;100189.59;;;30.59;77.60
21640;BME280;10981;45.462;10.974;2022-09-09T08:46:09;100186.66;;;30.81;74.81
21640;BME280;10981;45.462;10.974;2022-09-09T08:51:20;100191.03;;;32.29;70.52
21640;BME280;10981;45.462;10.974;2022-09-09T08:53:51;100185.06;;;33.20;65.95
21640;BME280;10981;45.462;10.974;2022-09-09T08:56:27;100177.94;;;32.71;64.84
21640;BME280;10981;45.462;10.974;2022-09-09T08:59:01;100176.94;;;32.62;66.22
21640;BME280;10981;45.462;10.974;2022-09-09T09:02:03;100174.44;;;32.70;65.99
21640;BME280;10981;45.462;10.974;2022-09-09T09:07:32;100182.66;;;33.19;63.83
21640;BME280;10981;45.462;10.974;2022-09-09T09:13:14;100171.16;;;31.28;69.46
21640;BME280;10981;45.462;10.974;2022-09-09T09:15:50;100168.78;;;31.11;70.84
21640;BME280;10981;45.462;10.974;2022-09-09T09:18:21;100178.25;;;30.88;74.80
21640;BME280;10981;45.462;10.974;2022-09-09T09:23:45;100175.81;;;30.45;81.23
21640;BME280;10981;45.462;10.974;2022-09-09T09:26:16;100174.34;;;29.86;80.94
21640;BME280;10981;45.462;10.974;2022-09-09T09:28:46;100170.38;;;29.99;79.12
21640;BME280;10981;45.462;10.974;2022-09-09T09:31:18;100166.66;;;29.47;76.96
21640;BME280;10981;45.462;10.974;2022-09-09T09:33:49;100172.34;;;29.50;81.91
21640;BME280;10981;45.462;10.974;2022-09-09T09:36:24;100162.78;;;29.96;81.79
21640;BME280;10981;45.462;10.974;2022-09-09T09:38:55;100161.53;;;30.50;81.88
21640;BME280;10981;45.462;10.974;2022-09-09T09:41:44;100168.84;;;30.55;75.45
21640;BME280;10981;45.462;10.974;2022-09-09T09:44:29;100165.00;;;30.09;76.17
21640;BME280;10981;45.462;10.974;2022-09-09T09:47:21;100166.91;;;29.45;77.46
21640;BME280;10981;45.462;10.974;2022-09-09T09:50:20;100169.84;;;28.96;82.07
21640;BME280;10981;45.462;10.974;2022-09-09T09:53:03;100193.88;;;28.70;84.16
21640;BME280;10981;45.462;10.974;2022-09-09T09:55:52;100212.91;;;28.09;87.48
21640;BME280;10981;45.462;10.974;2022-09-09T09:58:22;100223.84;;;27.40;90.53
21640;BME280;10981;45.462;10.974;2022-09-09T10:00:53;100229.03;;;26.33;98.61
21640;BME280;10981;45.462;10.974;2022-09-09T10:03:27;100242.06;;;25.06;100.00
21640;BME280;10981;45.462;10.974;2022-09-09T10:05:57;100250.69;;;23.79;100.00
21640;BME280;10981;45.462;10.974;2022-09-09T10:08:27;100265.66;;;22.86;100.00
21640;BME280;10981;45.462;10.974;2022-09-09T10:13:31;100320.31;;;21.37;100.00
21640;BME280;10981;45.462;10.974;2022-09-09T10:19:00;100348.94;;;19.62;100.00
21640;BME280;10981;45.462;10.974;2022-09-09T10:38:19;100348.47;;;19.30;100.00
21640;BME280;10981;45.462;10.974;2022-09-09T10:49:15;100322.34;;;19.55;100.00
21640;BME280;10981;45.462;10.974;2022-09-09T10:57:45;100298.16;;;19.43;100.00
21640;BME280;10981;45.462;10.974;2022-09-09T10:59:55;100286.84;;;19.56;100.00
21640;BME280;10981;45.462;10.974;2022-09-09T11:02:29;100278.75;;;19.64;100.00
21640;BME280;10981;45.462;10.974;2022-09-09T11:05:04;100276.00;;;19.79;100.00
21640;BME280;10981;45.462;10.974;2022-09-09T11:08:04;100272.97;;;19.82;100.00
21640;BME280;10981;45.462;10.974;2022-09-09T11:10:43;100267.00;;;19.80;100.00
21640;BME280;10981;45.462;10.974;2022-09-09T11:13:37;100261.06;;;19.78;100.00
21640;BME280;10981;45.462;10.974;2022-09-09T11:18:40;100257.66;;;20.26;100.00
21640;BME280;10981;45.462;10.974;2022-09-09T11:21:22;100252.81;;;20.36;100.00
21640;BME280;10981;45.462;10.974;2022-09-09T11:24:11;100243.22;;;20.49;100.00
21640;BME280;10981;45.462;10.974;2022-09-09T11:26:55;100241.84;;;20.66;100.00
21640;BME280;10981;45.462;10.974;2022-09-09T11:29:39;100232.50;;;20.97;100.00
21640;BME280;10981;45.462;10.974;2022-09-09T11:35:19;100217.31;;;21.85;100.00
21640;BME280;10981;45.462;10.974;2022-09-09T11:37:53;100218.25;;;22.11;100.00
21640;BME280;10981;45.462;10.974;2022-09-09T11:40:27;100216.69;;;22.35;100.00
21640;BME280;10981;45.462;10.974;2022-09-09T11:43:21;100212.63;;;22.71;100.00
21640;BME280;10981;45.462;10.974;2022-09-09T11:45:53;100199.84;;;23.05;100.00
21640;BME280;10981;45.462;10.974;2022-09-09T11:48:41;100210.53;;;23.30;100.00
21640;BME280;10981;45.462;10.974;2022-09-09T11:51:29;100206.78;;;23.57;100.00
21640;BME280;10981;45.462;10.974;2022-09-09T11:53:58;100210.66;;;23.98;100.00
21640;BME280;10981;45.462;10.974;2022-09-09T11:56:32;100207.47;;;24.69;100.00
21640;BME280;10981;45.462;10.974;2022-09-09T11:59:17;100207.63;;;24.86;100.00
21640;BME280;10981;45.462;10.974;2022-09-09T12:01:54;100197.09;;;24.60;100.00
21640;BME280;10981;45.462;10.974;2022-09-09T12:06:59;100194.81;;;24.76;100.00
21640;BME280;10981;45.462;10.974;2022-09-09T12:09:52;100191.78;;;24.84;100.00
21640;BME280;10981;45.462;10.974;2022-09-09T12:17:45;100183.44;;;25.28;100.00
21640;BME280;10981;45.462;10.974;2022-09-09T12:20:18;100177.81;;;25.77;100.00
21640;BME280;10981;45.462;10.974;2022-09-09T12:25:51;100163.59;;;25.76;100.00
21640;BME280;10981;45.462;10.974;2022-09-09T12:28:22;100162.25;;;26.32;100.00
21640;BME280;10981;45.462;10.974;2022-09-09T12:31:07;100165.66;;;26.27;100.00
21640;BME280;10981;45.462;10.974;2022-09-09T12:33:40;100161.81;;;25.94;100.00
21640;BME280;10981;45.462;10.974;2022-09-09T12:36:21;100161.00;;;26.22;100.00
21640;BME280;10981;45.462;10.974;2022-09-09T12:38:51;100163.19;;;26.88;100.00
21640;BME280;10981;45.462;10.974;2022-09-09T12:41:24;100160.69;;;27.38;100.00
21640;BME280;10981;45.462;10.974;2022-09-09T12:44:04;100159.06;;;27.59;95.43
21640;BME280;10981;45.462;10.974;2022-09-09T12:46:39;100155.28;;;27.55;99.05
21640;BME280;10981;45.462;10.974;2022-09-09T12:49:32;100153.69;;;27.59;97.31
21640;BME280;10981;45.462;10.974;2022-09-09T12:52:13;100148.31;;;28.03;98.53
21640;BME280;10981;45.462;10.974;2022-09-09T12:54:45;100147.22;;;28.32;99.92
21640;BME280;10981;45.462;10.974;2022-09-09T12:57:21;100142.47;;;28.66;91.39
21640;BME280;10981;45.462;10.974;2022-09-09T12:59:52;100142.13;;;29.00;90.70
21640;BME280;10981;45.462;10.974;2022-09-09T13:02:34;100145.31;;;28.92;89.22
21640;BME280;10981;45.462;10.974;2022-09-09T13:05:24;100132.75;;;29.08;84.24
21640;BME280;10981;45.462;10.974;2022-09-09T13:08:00;100141.38;;;29.10;80.23
21640;BME280;10981;45.462;10.974;2022-09-09T13:10:36;100143.78;;;29.07;74.43
21640;BME280;10981;45.462;10.974;2022-09-09T13:13:26;100142.91;;;29.44;75.01
21640;BME280;10981;45.462;10.974;2022-09-09T13:15:58;100132.53;;;29.78;77.82
21640;BME280;10981;45.462;10.974;2022-09-09T13:18:34;100127.66;;;29.70;69.13
21640;BME280;10981;45.462;10.974;2022-09-09T13:21:03;100135.50;;;29.87;67.84
21640;BME280;10981;45.462;10.974;2022-09-09T13:23:34;100133.13;;;29.91;66.31
21640;BME280;10981;45.462;10.974;2022-09-09T13:26:26;100128.88;;;30.21;63.97
21640;BME280;10981;45.462;10.974;2022-09-09T13:28:55;100126.16;;;30.67;70.06
21640;BME280;10981;45.462;10.974;2022-09-09T13:31:37;100122.31;;;31.09;66.48
21640;BME280;10981;45.462;10.974;2022-09-09T13:34:27;100125.25;;;31.23;66.42
21640;BME280;10981;45.462;10.974;2022-09-09T13:37:04;100126.13;;;31.13;65.06
21640;BME280;10981;45.462;10.974;2022-09-09T13:39:37;100127.94;;;31.34;67.60
21640;BME280;10981;45.462;10.974;2022-09-09T13:42:19;100124.34;;;31.49;63.25
21640;BME280;10981;45.462;10.974;2022-09-09T13:44:50;100123.69;;;31.07;70.53
21640;BME280;10981;45.462;10.974;2022-09-09T13:47:31;100119.66;;;30.84;64.14
21640;BME280;10981;45.462;10.974;2022-09-09T13:50:20;100119.94;;;30.87;64.51
21640;BME280;10981;45.462;10.974;2022-09-09T13:52:56;100119.38;;;30.90;62.20
21640;BME280;10981;45.462;10.974;2022-09-09T13:55:28;100118.06;;;30.62;60.94
21640;BME280;10981;45.462;10.974;2022-09-09T13:58:01;100117.56;;;30.65;62.71
21640;BME280;10981;45.462;10.974;2022-09-09T14:00:33;100114.53;;;30.10;63.45
21640;BME280;10981;45.462;10.974;2022-09-09T14:03:01;100105.94;;;30.13;63.31
21640;BME280;10981;45.462;10.974;2022-09-09T14:05:32;100106.06;;;29.55;63.09
21640;BME280;10981;45.462;10.974;2022-09-09T14:08:04;100102.66;;;29.22;65.73
21640;BME280;10981;45.462;10.974;2022-09-09T14:10:33;100103.81;;;29.31;64.61
21640;BME280;10981;45.462;10.974;2022-09-09T14:13:04;100108.59;;;28.76;62.98
21640;BME280;10981;45.462;10.974;2022-09-09T14:15:32;100101.50;;;28.64;70.81
21640;BME280;10981;45.462;10.974;2022-09-09T14:18:00;100104.16;;;28.59;73.24
21640;BME280;10981;45.462;10.974;2022-09-09T14:20:28;100094.44;;;28.20;71.69
21640;BME280;10981;45.462;10.974;2022-09-09T14:22:56;100108.88;;;28.09;75.57
21640;BME280;10981;45.462;10.974;2022-09-09T14:25:30;100097.75;;;27.78;73.58
21640;BME280;10981;45.462;10.974;2022-09-09T14:27:59;100097.53;;;27.57;77.82
21640;BME280;10981;45.462;10.974;2022-09-09T14:30:27;100102.66;;;27.37;85.64
21640;BME280;10981;45.462;10.974;2022-09-09T14:32:55;100098.16;;;27.20;84.58
21640;BME280;10981;45.462;10.974;2022-09-09T14:35:23;100101.25;;;27.12;85.14
21640;BME280;10981;45.462;10.974;2022-09-09T14:37:52;100103.94;;;27.12;80.37
21640;BME280;10981;45.462;10.974;2022-09-09T14:40:20;100107.38;;;27.07;82.11
21640;BME280;10981;45.462;10.974;2022-09-09T14:42:49;100107.38;;;26.90;87.21
21640;BME280;10981;45.462;10.974;2022-09-09T14:45:17;100107.56;;;26.67;92.95
21640;BME280;10981;45.462;10.974;2022-09-09T14:47:45;100103.00;;;26.67;90.24